sensor_id;sensor_type;location;lat;lon;timestamp;P1;durP1;ratioP1;P2;durP2;ratioP2
43877;SDS011;29815;48.184;11.268;2022-09-09T00:00:44;5.20;;;1.70;;
43877;SDS011;29815;48.184;11.268;2022-09-09T00:03:23;3.15;;;1.60;;
43877;SDS011;29815;48.184;11.268;2022-09-09T00:06:01;2.78;;;1.70;;
43877;SDS011;29815;48.184;11.268;2022-09-09T00:08:38;4.63;;;1.52;;
43877;SDS011;29815;48.184;11.268;2022-09-09T00:11:22;5.15;;;2.38;;
43877;SDS011;29815;48.184;11.268;2022-09-09T00:13:58;4.68;;;2.17;;
43877;SDS011;29815;48.184;11.268;2022-09-09T00:16:40;2.28;;;1.33;;
43877;SDS011;29815;48.184;11.268;2022-09-09T00:19:19;5.35;;;1.65;;
43877;SDS011;29815;48.184;11.268;2022-09-09T00:21:56;4.43;;;1.80;;
43877;SDS011;29815;48.184;11.268;2022-09-09T00:24:45;9.70;;;2.05;;
43877;SDS011;29815;48.184;11.268;2022-09-09T00:27:24;3.00;;;1.85;;
43877;SDS011;29815;48.184;11.268;2022-09-09T00:30:12;3.70;;;1.45;;
43877;SDS011;29815;48.184;11.268;2022-09-09T00:32:47;2.03;;;1.55;;
43877;SDS011;29815;48.184;11.268;2022-09-09T00:35:22;3.07;;;1.60;;
43877;SDS011;29815;48.184;11.268;2022-09-09T00:37:59;2.63;;;1.58;;
43877;SDS011;29815;48.184;11.268;2022-09-09T00:40:39;2.77;;;1.30;;
43877;SDS011;29815;48.184;11.268;2022-09-09T00:43:21;2.30;;;1.60;;
43877;SDS011;29815;48.184;11.268;2022-09-09T00:46:15;2.88;;;1.83;;
43877;SDS011;29815;48.184;11.268;2022-09-09T00:49:24;4.70;;;2.17;;
43877;SDS011;29815;48.184;11.268;2022-09-09T00:52:15;2.53;;;1.73;;
43877;SDS011;29815;48.184;11.268;2022-09-09T00:55:05;2.42;;;1.90;;
43877;SDS011;29815;48.184;11.268;2022-09-09T00:57:46;3.85;;;2.15;;
43877;SDS011;29815;48.184;11.268;2022-09-09T01:00:22;3.53;;;2.88;;
43877;SDS011;29815;48.184;11.268;2022-09-09T01:02:59;4.32;;;2.00;;
43877;SDS011;29815;48.184;11.268;2022-09-09T01:05:49;5.65;;;2.13;;
43877;SDS011;29815;48.184;11.268;2022-09-09T01:08:43;2.25;;;1.95;;
43877;SDS011;29815;48.184;11.268;2022-09-09T01:11:36;2.90;;;1.97;;
43877;SDS011;29815;48.184;11.268;2022-09-09T01:14:24;3.00;;;2.28;;
43877;SDS011;29815;48.184;11.268;2022-09-09T01:17:10;6.22;;;1.65;;
43877;SDS011;29815;48.184;11.268;2022-09-09T01:19:57;2.33;;;1.85;;
43877;SDS011;29815;48.184;11.268;2022-09-09T01:22:49;4.18;;;1.60;;
43877;SDS011;29815;48.184;11.268;2022-09-09T01:26:02;2.78;;;1.70;;
43877;SDS011;29815;48.184;11.268;2022-09-09T01:28:58;2.58;;;1.38;;
43877;SDS011;29815;48.184;11.268;2022-09-09T01:31:34;2.58;;;1.55;;
43877;SDS011;29815;48.184;11.268;2022-09-09T01:34:10;4.57;;;1.92;;
43877;SDS011;29815;48.184;11.268;2022-09-09T01:36:42;3.33;;;1.77;;
43877;SDS011;29815;48.184;11.268;2022-09-09T01:39:18;4.65;;;1.80;;
43877;SDS011;29815;48.184;11.268;2022-09-09T01:41:58;3.22;;;2.08;;
43877;SDS011;29815;48.184;11.268;2022-09-09T01:44:28;3.00;;;1.60;;
43877;SDS011;29815;48.184;11.268;2022-09-09T01:47:00;2.92;;;1.27;;
43877;SDS011;29815;48.184;11.268;2022-09-09T01:49:30;3.10;;;1.70;;
43877;SDS011;29815;48.184;11.268;2022-09-09T01:52:08;3.60;;;2.10;;
43877;SDS011;29815;48.184;11.268;2022-09-09T01:54:38;3.22;;;2.53;;
43877;SDS011;29815;48.184;11.268;2022-09-09T01:57:17;3.75;;;1.65;;
43877;SDS011;29815;48.184;11.268;2022-09-09T01:59:57;2.70;;;1.60;;
43877;SDS011;29815;48.184;11.268;2022-09-09T02:02:43;2.15;;;1.52;;
43877;SDS011;29815;48.184;11.268;2022-09-09T02:05:34;5.28;;;1.85;;
43877;SDS011;29815;48.184;11.268;2022-09-09T02:08:17;2.03;;;1.63;;
43877;SDS011;29815;48.184;11.268;2022-09-09T02:11:01;2.97;;;1.50;;
43877;SDS011;29815;48.184;11.268;2022-09-09T02:13:43;3.83;;;1.50;;
43877;SDS011;29815;48.184;11.268;2022-09-09T02:16:17;3.20;;;1.67;;
43877;SDS011;29815;48.184;11.268;2022-09-09T02:18:55;1.83;;;1.42;;
43877;SDS011;29815;48.184;11.268;2022-09-09T02:21:55;4.82;;;1.60;;
43877;SDS011;29815;48.184;11.268;2022-09-09T02:24:29;5.18;;;2.00;;
43877;SDS011;29815;48.184;11.268;2022-09-09T02:27:12;4.57;;;1.50;;
43877;SDS011;29815;48.184;11.268;2022-09-09T02:29:45;1.83;;;1.58;;
43877;SDS011;29815;48.184;11.268;2022-09-09T02:32:17;4.13;;;1.83;;
43877;SDS011;29815;48.184;11.268;2022-09-09T02:34:53;2.00;;;1.63;;
43877;SDS011;29815;48.184;11.268;2022-09-09T02:37:29;6.65;;;2.17;;
43877;SDS011;29815;48.184;11.268;2022-09-09T02:40:06;3.53;;;2.17;;
43877;SDS011;29815;48.184;11.268;2022-09-09T02:42:44;5.53;;;1.70;;
43877;SDS011;29815;48.184;11.268;2022-09-09T02:45:19;3.72;;;1.70;;
43877;SDS011;29815;48.184;11.268;2022-09-09T02:47:55;5.70;;;1.77;;
43877;SDS011;29815;48.184;11.268;2022-09-09T02:50:32;3.15;;;1.80;;
43877;SDS011;29815;48.184;11.268;2022-09-09T02:53:07;5.35;;;2.38;;
43877;SDS011;29815;48.184;11.268;2022-09-09T02:55:47;2.90;;;1.83;;
43877;SDS011;29815;48.184;11.268;2022-09-09T02:58:24;6.80;;;2.13;;
43877;SDS011;29815;48.184;11.268;2022-09-09T03:01:03;3.75;;;1.65;;
43877;SDS011;29815;48.184;11.268;2022-09-09T03:03:33;3.78;;;2.00;;
43877;SDS011;29815;48.184;11.268;2022-09-09T03:06:07;5.72;;;1.70;;
43877;SDS011;29815;48.184;11.268;2022-09-09T03:08:37;3.00;;;1.73;;
43877;SDS011;29815;48.184;11.268;2022-09-09T03:11:16;4.43;;;1.88;;
43877;SDS011;29815;48.184;11.268;2022-09-09T03:13:45;2.60;;;1.73;;
43877;SDS011;29815;48.184;11.268;2022-09-09T03:16:17;3.55;;;1.65;;
43877;SDS011;29815;48.184;11.268;2022-09-09T03:18:49;2.63;;;1.58;;
43877;SDS011;29815;48.184;11.268;2022-09-09T03:21:20;3.15;;;1.88;;
43877;SDS011;29815;48.184;11.268;2022-09-09T03:23:50;4.65;;;1.98;;
43877;SDS011;29815;48.184;11.268;2022-09-09T03:26:19;3.67;;;2.08;;
43877;SDS011;29815;48.184;11.268;2022-09-09T03:28:50;2.90;;;1.92;;
43877;SDS011;29815;48.184;11.268;2022-09-09T03:31:24;6.40;;;2.05;;
43877;SDS011;29815;48.184;11.268;2022-09-09T03:33:58;3.40;;;2.28;;
43877;SDS011;29815;48.184;11.268;2022-09-09T03:36:30;5.40;;;2.00;;
43877;SDS011;29815;48.184;11.268;2022-09-09T03:39:01;3.10;;;1.70;;
43877;SDS011;29815;48.184;11.268;2022-09-09T03:41:32;3.08;;;1.80;;
43877;SDS011;29815;48.184;11.268;2022-09-09T03:44:02;2.05;;;1.58;;
43877;SDS011;29815;48.184;11.268;2022-09-09T03:46:38;3.97;;;1.80;;
43877;SDS011;29815;48.184;11.268;2022-09-09T03:49:08;4.68;;;1.88;;
43877;SDS011;29815;48.184;11.268;2022-09-09T03:51:38;3.10;;;1.73;;
43877;SDS011;29815;48.184;11.268;2022-09-09T03:54:09;3.38;;;1.92;;
43877;SDS011;29815;48.184;11.268;2022-09-09T03:56:39;1.80;;;1.42;;
43877;SDS011;29815;48.184;11.268;2022-09-09T03:59:11;4.80;;;2.25;;
43877;SDS011;29815;48.184;11.268;2022-09-09T04:01:43;3.33;;;1.58;;
43877;SDS011;29815;48.184;11.268;2022-09-09T04:04:14;2.10;;;1.90;;
43877;SDS011;29815;48.184;11.268;2022-09-09T04:06:43;2.10;;;1.60;;
43877;SDS011;29815;48.184;11.268;2022-09-09T04:09:13;2.08;;;1.33;;
43877;SDS011;29815;48.184;11.268;2022-09-09T04:11:43;2.20;;;1.40;;
43877;SDS011;29815;48.184;11.268;2022-09-09T04:14:14;3.47;;;2.08;;
43877;SDS011;29815;48.184;11.268;2022-09-09T04:16:45;3.40;;;1.85;;
43877;SDS011;29815;48.184;11.268;2022-09-09T04:19:15;4.40;;;1.73;;
43877;SDS011;29815;48.184;11.268;2022-09-09T04:21:45;2.08;;;1.52;;
43877;SDS011;29815;48.184;11.268;2022-09-09T04:24:21;1.85;;;1.45;;
43877;SDS011;29815;48.184;11.268;2022-09-09T04:26:50;2.30;;;1.50;;
43877;SDS011;29815;48.184;11.268;2022-09-09T04:29:20;2.28;;;1.52;;
43877;SDS011;29815;48.184;11.268;2022-09-09T04:31:52;3.05;;;1.85;;
43877;SDS011;29815;48.184;11.268;2022-09-09T04:34:21;2.60;;;1.58;;
43877;SDS011;29815;48.184;11.268;2022-09-09T04:36:53;4.60;;;2.25;;
43877;SDS011;29815;48.184;11.268;2022-09-09T04:39:23;2.45;;;1.45;;
43877;SDS011;29815;48.184;11.268;2022-09-09T04:41:53;2.10;;;1.48;;
43877;SDS011;29815;48.184;11.268;2022-09-09T04:44:23;2.72;;;1.35;;
43877;SDS011;29815;48.184;11.268;2022-09-09T04:46:54;3.45;;;1.70;;
43877;SDS011;29815;48.184;11.268;2022-09-09T04:49:24;2.58;;;1.60;;
43877;SDS011;29815;48.184;11.268;2022-09-09T04:51:55;2.67;;;1.75;;
43877;SDS011;29815;48.184;11.268;2022-09-09T04:54:24;2.78;;;1.80;;
43877;SDS011;29815;48.184;11.268;2022-09-09T04:56:55;4.00;;;1.75;;
43877;SDS011;29815;48.184;11.268;2022-09-09T04:59:26;2.60;;;2.00;;
43877;SDS011;29815;48.184;11.268;2022-09-09T05:01:59;4.32;;;3.28;;
43877;SDS011;29815;48.184;11.268;2022-09-09T05:04:30;2.70;;;2.10;;
43877;SDS011;29815;48.184;11.268;2022-09-09T05:07:00;3.92;;;1.95;;
43877;SDS011;29815;48.184;11.268;2022-09-09T05:09:29;3.50;;;1.70;;
43877;SDS011;29815;48.184;11.268;2022-09-09T05:12:00;2.90;;;1.70;;
43877;SDS011;29815;48.184;11.268;2022-09-09T05:14:35;2.00;;;1.50;;
43877;SDS011;29815;48.184;11.268;2022-09-09T05:17:07;2.92;;;1.90;;
43877;SDS011;29815;48.184;11.268;2022-09-09T05:19:38;3.08;;;1.52;;
43877;SDS011;29815;48.184;11.268;2022-09-09T05:22:07;3.30;;;1.98;;
43877;SDS011;29815;48.184;11.268;2022-09-09T05:24:42;4.40;;;1.77;;
43877;SDS011;29815;48.184;11.268;2022-09-09T05:27:12;3.65;;;1.73;;
43877;SDS011;29815;48.184;11.268;2022-09-09T05:29:42;4.05;;;1.70;;
43877;SDS011;29815;48.184;11.268;2022-09-09T05:32:16;2.10;;;1.65;;
43877;SDS011;29815;48.184;11.268;2022-09-09T05:34:48;1.85;;;1.33;;
43877;SDS011;29815;48.184;11.268;2022-09-09T05:37:19;1.77;;;1.17;;
43877;SDS011;29815;48.184;11.268;2022-09-09T05:39:49;1.88;;;1.15;;
43877;SDS011;29815;48.184;11.268;2022-09-09T05:42:19;1.52;;;1.27;;
43877;SDS011;29815;48.184;11.268;2022-09-09T05:44:48;2.88;;;1.35;;
43877;SDS011;29815;48.184;11.268;2022-09-09T05:47:23;2.22;;;1.40;;
43877;SDS011;29815;48.184;11.268;2022-09-09T05:49:55;3.58;;;1.70;;
43877;SDS011;29815;48.184;11.268;2022-09-09T05:52:24;1.58;;;1.30;;
43877;SDS011;29815;48.184;11.268;2022-09-09T05:54:55;2.08;;;1.55;;
43877;SDS011;29815;48.184;11.268;2022-09-09T05:57:26;3.20;;;1.52;;
43877;SDS011;29815;48.184;11.268;2022-09-09T05:59:56;2.88;;;1.50;;
43877;SDS011;29815;48.184;11.268;2022-09-09T06:02:26;2.05;;;1.60;;
43877;SDS011;29815;48.184;11.268;2022-09-09T06:04:56;1.35;;;1.05;;
43877;SDS011;29815;48.184;11.268;2022-09-09T06:07:28;1.85;;;1.05;;
43877;SDS011;29815;48.184;11.268;2022-09-09T06:09:57;2.00;;;1.67;;
43877;SDS011;29815;48.184;11.268;2022-09-09T06:12:27;3.00;;;1.48;;
43877;SDS011;29815;48.184;11.268;2022-09-09T06:14:56;2.15;;;1.30;;
43877;SDS011;29815;48.184;11.268;2022-09-09T06:17:27;2.38;;;1.42;;
43877;SDS011;29815;48.184;11.268;2022-09-09T06:19:57;4.80;;;1.42;;
43877;SDS011;29815;48.184;11.268;2022-09-09T06:22:27;4.40;;;1.40;;
43877;SDS011;29815;48.184;11.268;2022-09-09T06:24:56;3.25;;;1.50;;
43877;SDS011;29815;48.184;11.268;2022-09-09T06:27:28;1.83;;;1.13;;
43877;SDS011;29815;48.184;11.268;2022-09-09T06:29:57;2.15;;;1.20;;
43877;SDS011;29815;48.184;11.268;2022-09-09T06:32:31;1.80;;;1.00;;
43877;SDS011;29815;48.184;11.268;2022-09-09T06:35:04;1.98;;;1.30;;
43877;SDS011;29815;48.184;11.268;2022-09-09T06:37:35;4.18;;;2.15;;
43877;SDS011;29815;48.184;11.268;2022-09-09T06:40:06;1.73;;;1.13;;
43877;SDS011;29815;48.184;11.268;2022-09-09T06:45:23;5.75;;;2.22;;
43877;SDS011;29815;48.184;11.268;2022-09-09T06:47:57;3.70;;;1.25;;
43877;SDS011;29815;48.184;11.268;2022-09-09T06:50:26;6.75;;;2.10;;
43877;SDS011;29815;48.184;11.268;2022-09-09T06:52:56;3.85;;;1.70;;
43877;SDS011;29815;48.184;11.268;2022-09-09T06:55:26;2.92;;;1.75;;
43877;SDS011;29815;48.184;11.268;2022-09-09T06:57:55;2.40;;;2.00;;
43877;SDS011;29815;48.184;11.268;2022-09-09T07:00:26;3.35;;;1.70;;
43877;SDS011;29815;48.184;11.268;2022-09-09T07:02:57;2.63;;;1.45;;
43877;SDS011;29815;48.184;11.268;2022-09-09T07:05:27;3.60;;;1.58;;
43877;SDS011;29815;48.184;11.268;2022-09-09T07:07:57;3.47;;;1.58;;
43877;SDS011;29815;48.184;11.268;2022-09-09T07:10:26;3.30;;;1.40;;
43877;SDS011;29815;48.184;11.268;2022-09-09T07:12:56;2.38;;;1.58;;
43877;SDS011;29815;48.184;11.268;2022-09-09T07:15:27;4.80;;;1.45;;
43877;SDS011;29815;48.184;11.268;2022-09-09T07:18:01;3.53;;;1.63;;
43877;SDS011;29815;48.184;11.268;2022-09-09T07:20:31;2.80;;;1.67;;
43877;SDS011;29815;48.184;11.268;2022-09-09T07:23:01;4.70;;;1.88;;
43877;SDS011;29815;48.184;11.268;2022-09-09T07:25:30;2.60;;;1.45;;
43877;SDS011;29815;48.184;11.268;2022-09-09T07:28:00;2.47;;;1.50;;
43877;SDS011;29815;48.184;11.268;2022-09-09T07:30:30;2.95;;;1.60;;
43877;SDS011;29815;48.184;11.268;2022-09-09T07:33:01;1.98;;;1.70;;
43877;SDS011;29815;48.184;11.268;2022-09-09T07:35:31;2.25;;;1.60;;
43877;SDS011;29815;48.184;11.268;2022-09-09T07:38:01;2.13;;;1.88;;
43877;SDS011;29815;48.184;11.268;2022-09-09T07:40:34;3.00;;;1.35;;
43877;SDS011;29815;48.184;11.268;2022-09-09T07:43:04;3.47;;;1.77;;
43877;SDS011;29815;48.184;11.268;2022-09-09T07:45:34;3.70;;;1.83;;
43877;SDS011;29815;48.184;11.268;2022-09-09T07:48:05;2.58;;;1.60;;
43877;SDS011;29815;48.184;11.268;2022-09-09T07:50:35;2.55;;;1.33;;
43877;SDS011;29815;48.184;11.268;2022-09-09T07:53:04;4.50;;;2.38;;
43877;SDS011;29815;48.184;11.268;2022-09-09T07:55:34;2.78;;;1.70;;
43877;SDS011;29815;48.184;11.268;2022-09-09T07:58:04;3.40;;;1.77;;
43877;SDS011;29815;48.184;11.268;2022-09-09T08:00:33;4.50;;;1.98;;
43877;SDS011;29815;48.184;11.268;2022-09-09T08:03:03;4.30;;;1.52;;
43877;SDS011;29815;48.184;11.268;2022-09-09T08:05:34;3.42;;;1.80;;
43877;SDS011;29815;48.184;11.268;2022-09-09T08:08:07;3.75;;;1.70;;
43877;SDS011;29815;48.184;11.268;2022-09-09T08:10:36;2.83;;;1.73;;
43877;SDS011;29815;48.184;11.268;2022-09-09T08:13:05;2.85;;;2.10;;
43877;SDS011;29815;48.184;11.268;2022-09-09T08:15:45;2.97;;;2.17;;
43877;SDS011;29815;48.184;11.268;2022-09-09T08:18:18;3.72;;;2.05;;
43877;SDS011;29815;48.184;11.268;2022-09-09T08:20:47;4.72;;;2.60;;
43877;SDS011;29815;48.184;11.268;2022-09-09T08:23:17;3.13;;;2.03;;
43877;SDS011;29815;48.184;11.268;2022-09-09T08:25:46;3.10;;;2.30;;
43877;SDS011;29815;48.184;11.268;2022-09-09T08:28:17;4.30;;;2.40;;
43877;SDS011;29815;48.184;11.268;2022-09-09T08:30:47;5.55;;;2.20;;
43877;SDS011;29815;48.184;11.268;2022-09-09T08:33:18;2.95;;;2.20;;
43877;SDS011;29815;48.184;11.268;2022-09-09T08:35:49;4.03;;;2.83;;
43877;SDS011;29815;48.184;11.268;2022-09-09T08:38:20;3.35;;;2.05;;
43877;SDS011;29815;48.184;11.268;2022-09-09T08:40:49;5.63;;;2.13;;
43877;SDS011;29815;48.184;11.268;2022-09-09T08:43:28;5.75;;;2.42;;
43877;SDS011;29815;48.184;11.268;2022-09-09T08:46:01;3.03;;;2.17;;
43877;SDS011;29815;48.184;11.268;2022-09-09T08:48:46;2.70;;;1.98;;
43877;SDS011;29815;48.184;11.268;2022-09-09T08:51:25;2.97;;;2.10;;
43877;SDS011;29815;48.184;11.268;2022-09-09T08:53:59;4.18;;;1.90;;
43877;SDS011;29815;48.184;11.268;2022-09-09T08:56:33;3.38;;;1.85;;
43877;SDS011;29815;48.184;11.268;2022-09-09T08:59:03;3.65;;;1.80;;
43877;SDS011;29815;48.184;11.268;2022-09-09T09:01:42;2.20;;;1.60;;
43877;SDS011;29815;48.184;11.268;2022-09-09T09:04:38;1.80;;;1.48;;
43877;SDS011;29815;48.184;11.268;2022-09-09T09:07:41;4.60;;;1.75;;
43877;SDS011;29815;48.184;11.268;2022-09-09T09:10:34;2.95;;;1.70;;
43877;SDS011;29815;48.184;11.268;2022-09-09T09:13:23;3.65;;;1.92;;
43877;SDS011;29815;48.184;11.268;2022-09-09T09:16:13;2.20;;;1.42;;
43877;SDS011;29815;48.184;11.268;2022-09-09T09:18:53;4.07;;;1.48;;
43877;SDS011;29815;48.184;11.268;2022-09-09T09:21:28;3.27;;;1.90;;
43877;SDS011;29815;48.184;11.268;2022-09-09T09:24:12;2.90;;;1.63;;
43877;SDS011;29815;48.184;11.268;2022-09-09T09:26:50;5.32;;;1.90;;
43877;SDS011;29815;48.184;11.268;2022-09-09T09:29:21;2.83;;;1.63;;
43877;SDS011;29815;48.184;11.268;2022-09-09T09:31:53;5.38;;;1.50;;
43877;SDS011;29815;48.184;11.268;2022-09-09T09:34:28;2.38;;;1.17;;
43877;SDS011;29815;48.184;11.268;2022-09-09T09:37:02;4.45;;;1.70;;
43877;SDS011;29815;48.184;11.268;2022-09-09T09:39:47;2.05;;;1.58;;
43877;SDS011;29815;48.184;11.268;2022-09-09T09:42:31;3.83;;;2.03;;
43877;SDS011;29815;48.184;11.268;2022-09-09T09:45:07;3.58;;;1.60;;
43877;SDS011;29815;48.184;11.268;2022-09-09T09:47:45;2.97;;;1.20;;
43877;SDS011;29815;48.184;11.268;2022-09-09T09:50:35;3.22;;;1.60;;
43877;SDS011;29815;48.184;11.268;2022-09-09T09:55:56;2.08;;;1.10;;
43877;SDS011;29815;48.184;11.268;2022-09-09T09:58:31;3.38;;;1.55;;
43877;SDS011;29815;48.184;11.268;2022-09-09T10:01:18;2.08;;;1.40;;
43877;SDS011;29815;48.184;11.268;2022-09-09T10:03:53;4.47;;;1.30;;
43877;SDS011;29815;48.184;11.268;2022-09-09T10:06:31;2.85;;;1.33;;
43877;SDS011;29815;48.184;11.268;2022-09-09T10:09:20;4.13;;;1.40;;
43877;SDS011;29815;48.184;11.268;2022-09-09T10:11:55;2.30;;;1.58;;
43877;SDS011;29815;48.184;11.268;2022-09-09T10:14:35;2.05;;;1.20;;
43877;SDS011;29815;48.184;11.268;2022-09-09T10:17:18;6.63;;;2.83;;
43877;SDS011;29815;48.184;11.268;2022-09-09T10:19:58;4.80;;;1.55;;
43877;SDS011;29815;48.184;11.268;2022-09-09T10:22:50;2.60;;;1.20;;
43877;SDS011;29815;48.184;11.268;2022-09-09T10:28:33;2.15;;;1.13;;
43877;SDS011;29815;48.184;11.268;2022-09-09T10:31:27;3.88;;;1.02;;
43877;SDS011;29815;48.184;11.268;2022-09-09T10:34:12;4.25;;;1.10;;
43877;SDS011;29815;48.184;11.268;2022-09-09T10:37:13;4.35;;;1.20;;
43877;SDS011;29815;48.184;11.268;2022-09-09T10:40:02;2.40;;;1.10;;
43877;SDS011;29815;48.184;11.268;2022-09-09T10:43:09;1.98;;;0.90;;
43877;SDS011;29815;48.184;11.268;2022-09-09T10:46:04;2.22;;;1.08;;
43877;SDS011;29815;48.184;11.268;2022-09-09T10:48:47;2.85;;;1.30;;
43877;SDS011;29815;48.184;11.268;2022-09-09T10:51:37;1.95;;;1.33;;
43877;SDS011;29815;48.184;11.268;2022-09-09T10:54:23;2.72;;;1.17;;
43877;SDS011;29815;48.184;11.268;2022-09-09T10:57:13;2.83;;;0.85;;
43877;SDS011;29815;48.184;11.268;2022-09-09T10:59:57;2.63;;;0.90;;
43877;SDS011;29815;48.184;11.268;2022-09-09T11:02:33;2.85;;;0.90;;
43877;SDS011;29815;48.184;11.268;2022-09-09T11:05:05;2.45;;;1.15;;
43877;SDS011;29815;48.184;11.268;2022-09-09T11:07:49;3.13;;;0.98;;
43877;SDS011;29815;48.184;11.268;2022-09-09T11:10:29;3.80;;;1.83;;
43877;SDS011;29815;48.184;11.268;2022-09-09T11:13:10;1.27;;;0.85;;
43877;SDS011;29815;48.184;11.268;2022-09-09T11:15:49;2.75;;;1.17;;
43877;SDS011;29815;48.184;11.268;2022-09-09T11:18:25;3.10;;;0.80;;
43877;SDS011;29815;48.184;11.268;2022-09-09T11:20:58;2.88;;;1.20;;
43877;SDS011;29815;48.184;11.268;2022-09-09T11:23:33;3.88;;;1.35;;
43877;SDS011;29815;48.184;11.268;2022-09-09T11:26:10;1.10;;;0.75;;
43877;SDS011;29815;48.184;11.268;2022-09-09T11:28:53;2.60;;;0.98;;
43877;SDS011;29815;48.184;11.268;2022-09-09T11:32:24;2.45;;;0.93;;
43877;SDS011;29815;48.184;11.268;2022-09-09T11:35:50;1.80;;;1.10;;
43877;SDS011;29815;48.184;11.268;2022-09-09T11:38:40;4.00;;;0.93;;
43877;SDS011;29815;48.184;11.268;2022-09-09T11:41:15;4.78;;;1.35;;
43877;SDS011;29815;48.184;11.268;2022-09-09T11:43:48;2.05;;;0.95;;
43877;SDS011;29815;48.184;11.268;2022-09-09T11:46:20;3.78;;;1.17;;
43877;SDS011;29815;48.184;11.268;2022-09-09T11:49:04;4.32;;;0.85;;
43877;SDS011;29815;48.184;11.268;2022-09-09T11:51:49;2.17;;;1.00;;
43877;SDS011;29815;48.184;11.268;2022-09-09T11:54:28;1.80;;;0.73;;
43877;SDS011;29815;48.184;11.268;2022-09-09T11:57:00;1.33;;;0.52;;
43877;SDS011;29815;48.184;11.268;2022-09-09T11:59:53;2.13;;;0.65;;
43877;SDS011;29815;48.184;11.268;2022-09-09T12:02:24;2.03;;;0.80;;
43877;SDS011;29815;48.184;11.268;2022-09-09T12:04:59;3.15;;;1.10;;
43877;SDS011;29815;48.184;11.268;2022-09-09T12:07:36;4.03;;;1.00;;
43877;SDS011;29815;48.184;11.268;2022-09-09T12:10:19;2.35;;;0.95;;
43877;SDS011;29815;48.184;11.268;2022-09-09T12:12:55;1.85;;;0.90;;
43877;SDS011;29815;48.184;11.268;2022-09-09T12:15:36;4.70;;;1.23;;
43877;SDS011;29815;48.184;11.268;2022-09-09T12:18:21;5.80;;;1.58;;
43877;SDS011;29815;48.184;11.268;2022-09-09T12:20:57;5.63;;;1.70;;
43877;SDS011;29815;48.184;11.268;2022-09-09T12:23:37;3.92;;;1.15;;
43877;SDS011;29815;48.184;11.268;2022-09-09T12:26:20;2.67;;;0.82;;
43877;SDS011;29815;48.184;11.268;2022-09-09T12:29:04;1.67;;;0.90;;
43877;SDS011;29815;48.184;11.268;2022-09-09T12:31:51;4.65;;;1.00;;
43877;SDS011;29815;48.184;11.268;2022-09-09T12:34:33;2.22;;;1.08;;
43877;SDS011;29815;48.184;11.268;2022-09-09T12:37:14;4.47;;;1.48;;
43877;SDS011;29815;48.184;11.268;2022-09-09T12:39:55;2.80;;;1.10;;
43877;SDS011;29815;48.184;11.268;2022-09-09T12:42:26;8.90;;;1.40;;
43877;SDS011;29815;48.184;11.268;2022-09-09T12:44:57;5.20;;;1.73;;
43877;SDS011;29815;48.184;11.268;2022-09-09T12:47:33;3.92;;;1.40;;
43877;SDS011;29815;48.184;11.268;2022-09-09T12:50:15;3.88;;;1.30;;
43877;SDS011;29815;48.184;11.268;2022-09-09T12:52:50;2.30;;;0.80;;
43877;SDS011;29815;48.184;11.268;2022-09-09T12:55:24;2.78;;;1.38;;
43877;SDS011;29815;48.184;11.268;2022-09-09T12:58:01;2.65;;;0.80;;
43877;SDS011;29815;48.184;11.268;2022-09-09T13:00:33;2.70;;;0.90;;
43877;SDS011;29815;48.184;11.268;2022-09-09T13:03:14;4.10;;;1.00;;
43877;SDS011;29815;48.184;11.268;2022-09-09T13:05:48;1.42;;;0.70;;
43877;SDS011;29815;48.184;11.268;2022-09-09T13:08:20;4.25;;;0.80;;
43877;SDS011;29815;48.184;11.268;2022-09-09T13:10:50;2.75;;;0.65;;
43877;SDS011;29815;48.184;11.268;2022-09-09T13:13:29;5.00;;;1.20;;
43877;SDS011;29815;48.184;11.268;2022-09-09T13:16:05;4.47;;;1.20;;
43877;SDS011;29815;48.184;11.268;2022-09-09T13:18:49;5.07;;;1.05;;
43877;SDS011;29815;48.184;11.268;2022-09-09T13:21:19;2.67;;;0.93;;
43877;SDS011;29815;48.184;11.268;2022-09-09T13:24:01;3.97;;;0.90;;
43877;SDS011;29815;48.184;11.268;2022-09-09T13:26:34;4.70;;;1.08;;
43877;SDS011;29815;48.184;11.268;2022-09-09T13:29:14;5.32;;;1.20;;
43877;SDS011;29815;48.184;11.268;2022-09-09T13:31:46;2.08;;;1.00;;
43877;SDS011;29815;48.184;11.268;2022-09-09T13:34:26;4.55;;;0.88;;
43877;SDS011;29815;48.184;11.268;2022-09-09T13:36:59;3.50;;;0.90;;
43877;SDS011;29815;48.184;11.268;2022-09-09T13:39:34;6.90;;;1.77;;
43877;SDS011;29815;48.184;11.268;2022-09-09T13:42:18;3.83;;;0.82;;
43877;SDS011;29815;48.184;11.268;2022-09-09T13:44:55;2.65;;;0.82;;
43877;SDS011;29815;48.184;11.268;2022-09-09T13:47:27;3.75;;;1.30;;
43877;SDS011;29815;48.184;11.268;2022-09-09T13:50:10;3.53;;;1.02;;
43877;SDS011;29815;48.184;11.268;2022-09-09T13:52:48;2.45;;;1.25;;
43877;SDS011;29815;48.184;11.268;2022-09-09T13:55:20;3.55;;;0.80;;
43877;SDS011;29815;48.184;11.268;2022-09-09T13:57:54;1.60;;;0.98;;
43877;SDS011;29815;48.184;11.268;2022-09-09T14:00:26;2.90;;;1.10;;
43877;SDS011;29815;48.184;11.268;2022-09-09T14:02:59;3.05;;;0.98;;
43877;SDS011;29815;48.184;11.268;2022-09-09T14:05:30;2.30;;;1.10;;
43877;SDS011;29815;48.184;11.268;2022-09-09T14:08:03;2.50;;;0.88;;
43877;SDS011;29815;48.184;11.268;2022-09-09T14:10:34;4.30;;;1.10;;
43877;SDS011;29815;48.184;11.268;2022-09-09T14:13:04;3.88;;;0.88;;
43877;SDS011;29815;48.184;11.268;2022-09-09T14:15:35;5.03;;;0.90;;
43877;SDS011;29815;48.184;11.268;2022-09-09T14:18:04;1.55;;;0.82;;
43877;SDS011;29815;48.184;11.268;2022-09-09T14:20:34;2.10;;;0.80;;
43877;SDS011;29815;48.184;11.268;2022-09-09T14:23:03;3.58;;;0.88;;
43877;SDS011;29815;48.184;11.268;2022-09-09T14:25:35;1.95;;;1.23;;
43877;SDS011;29815;48.184;11.268;2022-09-09T14:28:05;3.67;;;0.93;;
43877;SDS011;29815;48.184;11.268;2022-09-09T14:30:37;2.00;;;0.85;;
43877;SDS011;29815;48.184;11.268;2022-09-09T14:33:09;4.00;;;1.08;;
43877;SDS011;29815;48.184;11.268;2022-09-09T14:35:42;1.83;;;0.75;;
43877;SDS011;29815;48.184;11.268;2022-09-09T14:38:11;2.95;;;0.60;;
43877;SDS011;29815;48.184;11.268;2022-09-09T14:40:46;1.90;;;1.10;;
43877;SDS011;29815;48.184;11.268;2022-09-09T14:43:16;3.47;;;1.00;;
43877;SDS011;29815;48.184;11.268;2022-09-09T14:45:45;4.40;;;1.05;;
43877;SDS011;29815;48.184;11.268;2022-09-09T14:48:15;4.13;;;1.10;;
43877;SDS011;29815;48.184;11.268;2022-09-09T14:50:45;2.22;;;0.70;;
43877;SDS011;29815;48.184;11.268;2022-09-09T14:53:15;3.15;;;0.85;;
43877;SDS011;29815;48.184;11.268;2022-09-09T14:55:46;3.20;;;1.05;;
43877;SDS011;29815;48.184;11.268;2022-09-09T14:58:16;3.58;;;1.02;;
43877;SDS011;29815;48.184;11.268;2022-09-09T15:00:45;2.00;;;0.68;;
43877;SDS011;29815;48.184;11.268;2022-09-09T15:03:15;4.68;;;1.10;;
43877;SDS011;29815;48.184;11.268;2022-09-09T15:05:44;4.22;;;1.05;;
43877;SDS011;29815;48.184;11.268;2022-09-09T15:08:15;2.67;;;0.68;;
43877;SDS011;29815;48.184;11.268;2022-09-09T15:10:44;2.65;;;0.80;;
43877;SDS011;29815;48.184;11.268;2022-09-09T15:13:15;1.02;;;0.70;;
43877;SDS011;29815;48.184;11.268;2022-09-09T15:15:45;1.63;;;0.80;;
43877;SDS011;29815;48.184;11.268;2022-09-09T15:18:17;1.77;;;0.68;;
43877;SDS011;29815;48.184;11.268;2022-09-09T15:20:46;2.60;;;1.02;;
43877;SDS011;29815;48.184;11.268;2022-09-09T15:23:16;2.08;;;0.80;;
43877;SDS011;29815;48.184;11.268;2022-09-09T15:25:53;2.63;;;0.80;;
43877;SDS011;29815;48.184;11.268;2022-09-09T15:28:24;0.93;;;0.63;;
43877;SDS011;29815;48.184;11.268;2022-09-09T15:30:54;1.88;;;1.05;;
43877;SDS011;29815;48.184;11.268;2022-09-09T15:33:24;3.28;;;0.80;;